sensor_id;sensor_type;location;lat;lon;timestamp;temperature;humidity
1025;DHT22;501;48.214;11.350;2023-04-07T00:00:57;5.40;28.70
1025;DHT22;501;48.214;11.350;2023-04-07T00:03:22;5.30;28.60
1025;DHT22;501;48.214;11.350;2023-04-07T00:05:48;5.30;28.90
1025;DHT22;501;48.214;11.350;2023-04-07T00:08:14;5.30;29.00
1025;DHT22;501;48.214;11.350;2023-04-07T00:10:40;5.30;29.30
1025;DHT22;501;48.214;11.350;2023-04-07T00:13:06;5.30;29.30
1025;DHT22;501;48.214;11.350;2023-04-07T00:15:31;5.20;29.40
1025;DHT22;501;48.214;11.350;2023-04-07T00:17:57;5.20;29.70
1025;DHT22;501;48.214;11.350;2023-04-07T00:20:22;5.20;29.60
1025;DHT22;501;48.214;11.350;2023-04-07T00:22:48;5.20;30.00
1025;DHT22;501;48.214;11.350;2023-04-07T00:25:14;5.20;30.10
1025;DHT22;501;48.214;11.350;2023-04-07T00:27:40;5.30;30.30
1025;DHT22;501;48.214;11.350;2023-04-07T00:30:06;5.30;30.40
1025;DHT22;501;48.214;11.350;2023-04-07T00:32:32;5.30;30.60
1025;DHT22;501;48.214;11.350;2023-04-07T00:34:58;5.30;31.10
1025;DHT22;501;48.214;11.350;2023-04-07T00:37:23;5.30;30.60
1025;DHT22;501;48.214;11.350;2023-04-07T00:39:52;5.30;30.50
1025;DHT22;501;48.214;11.350;2023-04-07T00:42:18;5.30;30.30
1025;DHT22;501;48.214;11.350;2023-04-07T00:44:44;5.30;30.00
1025;DHT22;501;48.214;11.350;2023-04-07T00:47:09;5.40;30.00
1025;DHT22;501;48.214;11.350;2023-04-07T00:49:38;5.40;30.50
1025;DHT22;501;48.214;11.350;2023-04-07T00:52:04;5.40;30.20
1025;DHT22;501;48.214;11.350;2023-04-07T00:54:31;5.40;29.80
1025;DHT22;501;48.214;11.350;2023-04-07T00:56:57;5.40;29.70
1025;DHT22;501;48.214;11.350;2023-04-07T00:59:23;5.40;30.00
1025;DHT22;501;48.214;11.350;2023-04-07T01:02:02;5.40;30.40
1025;DHT22;501;48.214;11.350;2023-04-07T01:04:38;5.50;30.70
1025;DHT22;501;48.214;11.350;2023-04-07T01:07:10;5.50;31.10
1025;DHT22;501;48.214;11.350;2023-04-07T01:09:45;5.50;31.00
1025;DHT22;501;48.214;11.350;2023-04-07T01:12:20;5.50;31.00
1025;DHT22;501;48.214;11.350;2023-04-07T01:14:58;5.50;30.20
1025;DHT22;501;48.214;11.350;2023-04-07T01:17:25;5.50;30.70
1025;DHT22;501;48.214;11.350;2023-04-07T01:19:58;5.50;30.90
1025;DHT22;501;48.214;11.350;2023-04-07T01:22:31;5.50;31.00
1025;DHT22;501;48.214;11.350;2023-04-07T01:30:28;5.60;32.30
1025;DHT22;501;48.214;11.350;2023-04-07T01:32:57;5.60;32.50
1025;DHT22;501;48.214;11.350;2023-04-07T01:35:26;5.60;32.50
1025;DHT22;501;48.214;11.350;2023-04-07T01:37:54;5.60;33.20
1025;DHT22;501;48.214;11.350;2023-04-07T01:40:20;5.70;33.70
1025;DHT22;501;48.214;11.350;2023-04-07T01:42:47;5.70;33.80
1025;DHT22;501;48.214;11.350;2023-04-07T01:45:15;5.70;34.10
1025;DHT22;501;48.214;11.350;2023-04-07T01:47:41;5.70;34.50
1025;DHT22;501;48.214;11.350;2023-04-07T01:50:10;5.70;34.70
1025;DHT22;501;48.214;11.350;2023-04-07T01:52:37;5.70;34.60
1025;DHT22;501;48.214;11.350;2023-04-07T01:55:04;5.80;34.70
1025;DHT22;501;48.214;11.350;2023-04-07T01:57:30;5.80;35.20
1025;DHT22;501;48.214;11.350;2023-04-07T01:59:56;5.90;35.30
1025;DHT22;501;48.214;11.350;2023-04-07T02:02:22;5.90;35.30
1025;DHT22;501;48.214;11.350;2023-04-07T02:04:55;5.90;35.30
1025;DHT22;501;48.214;11.350;2023-04-07T02:07:31;5.90;35.30
1025;DHT22;501;48.214;11.350;2023-04-07T02:10:01;6.00;35.10
1025;DHT22;501;48.214;11.350;2023-04-07T02:12:29;6.00;35.30
1025;DHT22;501;48.214;11.350;2023-04-07T02:14:56;6.00;35.60
1025;DHT22;501;48.214;11.350;2023-04-07T02:17:23;6.10;36.30
1025;DHT22;501;48.214;11.350;2023-04-07T02:19:50;6.10;36.80
1025;DHT22;501;48.214;11.350;2023-04-07T02:22:17;6.00;36.80
1025;DHT22;501;48.214;11.350;2023-04-07T02:24:43;6.10;36.80
1025;DHT22;501;48.214;11.350;2023-04-07T02:27:09;6.10;37.20
1025;DHT22;501;48.214;11.350;2023-04-07T02:29:34;6.10;37.10
1025;DHT22;501;48.214;11.350;2023-04-07T02:32:00;6.10;37.60
1025;DHT22;501;48.214;11.350;2023-04-07T02:34:25;6.10;37.80
1025;DHT22;501;48.214;11.350;2023-04-07T02:36:51;6.10;37.80
1025;DHT22;501;48.214;11.350;2023-04-07T02:39:17;6.10;38.60
1025;DHT22;501;48.214;11.350;2023-04-07T02:41:43;6.00;39.10
1025;DHT22;501;48.214;11.350;2023-04-07T02:44:08;6.00;40.10
1025;DHT22;501;48.214;11.350;2023-04-07T02:46:34;6.00;40.50
1025;DHT22;501;48.214;11.350;2023-04-07T02:48:59;6.00;41.70
1025;DHT22;501;48.214;11.350;2023-04-07T02:51:25;6.00;42.00
1025;DHT22;501;48.214;11.350;2023-04-07T02:53:51;6.00;42.90
1025;DHT22;501;48.214;11.350;2023-04-07T02:56:17;6.00;43.10
1025;DHT22;501;48.214;11.350;2023-04-07T02:58:43;5.90;43.40
1025;DHT22;501;48.214;11.350;2023-04-07T03:01:08;5.90;44.10
1025;DHT22;501;48.214;11.350;2023-04-07T03:03:34;5.90;44.30
1025;DHT22;501;48.214;11.350;2023-04-07T03:06:00;5.90;44.40
1025;DHT22;501;48.214;11.350;2023-04-07T03:08:26;6.00;44.50
1025;DHT22;501;48.214;11.350;2023-04-07T03:10:51;6.00;44.40
1025;DHT22;501;48.214;11.350;2023-04-07T03:13:17;5.90;44.80
1025;DHT22;501;48.214;11.350;2023-04-07T03:15:44;6.00;44.90
1025;DHT22;501;48.214;11.350;2023-04-07T03:18:10;6.00;44.80
1025;DHT22;501;48.214;11.350;2023-04-07T03:20:36;6.00;44.70
1025;DHT22;501;48.214;11.350;2023-04-07T03:23:02;6.00;44.90
1025;DHT22;501;48.214;11.350;2023-04-07T03:25:28;6.10;44.50
1025;DHT22;501;48.214;11.350;2023-04-07T03:27:54;6.10;44.00
1025;DHT22;501;48.214;11.350;2023-04-07T03:30:19;6.10;44.40
1025;DHT22;501;48.214;11.350;2023-04-07T03:32:45;6.10;45.10
1025;DHT22;501;48.214;11.350;2023-04-07T03:35:11;6.20;45.50
1025;DHT22;501;48.214;11.350;2023-04-07T03:37:37;6.10;45.80
1025;DHT22;501;48.214;11.350;2023-04-07T03:40:02;6.20;46.30
1025;DHT22;501;48.214;11.350;2023-04-07T03:42:28;6.20;45.60
1025;DHT22;501;48.214;11.350;2023-04-07T03:44:54;6.20;45.40
1025;DHT22;501;48.214;11.350;2023-04-07T03:47:20;6.20;45.80
1025;DHT22;501;48.214;11.350;2023-04-07T03:49:47;6.20;46.40
1025;DHT22;501;48.214;11.350;2023-04-07T03:52:12;6.20;45.60
1025;DHT22;501;48.214;11.350;2023-04-07T03:54:38;6.20;45.80
1025;DHT22;501;48.214;11.350;2023-04-07T03:57:03;6.20;45.60
1025;DHT22;501;48.214;11.350;2023-04-07T03:59:29;6.20;45.30
1025;DHT22;501;48.214;11.350;2023-04-07T04:01:55;6.20;45.40
1025;DHT22;501;48.214;11.350;2023-04-07T04:04:21;6.20;45.70
1025;DHT22;501;48.214;11.350;2023-04-07T04:06:49;6.20;45.80
1025;DHT22;501;48.214;11.350;2023-04-07T04:09:14;6.20;45.40
1025;DHT22;501;48.214;11.350;2023-04-07T04:11:41;6.20;46.20
1025;DHT22;501;48.214;11.350;2023-04-07T04:14:06;6.20;46.70
1025;DHT22;501;48.214;11.350;2023-04-07T04:16:32;6.20;46.30
1025;DHT22;501;48.214;11.350;2023-04-07T04:19:00;6.20;45.80
1025;DHT22;501;48.214;11.350;2023-04-07T04:21:25;6.20;46.70
1025;DHT22;501;48.214;11.350;2023-04-07T04:23:51;6.20;46.70
1025;DHT22;501;48.214;11.350;2023-04-07T04:26:17;6.20;47.10
1025;DHT22;501;48.214;11.350;2023-04-07T04:28:43;6.20;46.70
1025;DHT22;501;48.214;11.350;2023-04-07T04:31:08;6.20;46.90
1025;DHT22;501;48.214;11.350;2023-04-07T04:33:34;6.20;48.10
1025;DHT22;501;48.214;11.350;2023-04-07T04:36:00;6.20;48.40
1025;DHT22;501;48.214;11.350;2023-04-07T04:38:26;6.20;48.90
1025;DHT22;501;48.214;11.350;2023-04-07T04:40:52;6.20;49.40
1025;DHT22;501;48.214;11.350;2023-04-07T04:43:17;6.20;49.10
1025;DHT22;501;48.214;11.350;2023-04-07T04:45:43;6.20;49.20
1025;DHT22;501;48.214;11.350;2023-04-07T04:48:08;6.10;49.60
1025;DHT22;501;48.214;11.350;2023-04-07T04:50:35;6.10;49.60
1025;DHT22;501;48.214;11.350;2023-04-07T04:53:01;6.10;49.80
1025;DHT22;501;48.214;11.350;2023-04-07T04:55:27;6.10;50.50
1025;DHT22;501;48.214;11.350;2023-04-07T04:57:52;6.10;50.70
1025;DHT22;501;48.214;11.350;2023-04-07T05:00:19;6.10;50.80
1025;DHT22;501;48.214;11.350;2023-04-07T05:02:44;6.10;50.90
1025;DHT22;501;48.214;11.350;2023-04-07T05:05:11;6.10;51.10
1025;DHT22;501;48.214;11.350;2023-04-07T05:07:37;6.10;51.50
1025;DHT22;501;48.214;11.350;2023-04-07T05:10:05;6.00;51.40
1025;DHT22;501;48.214;11.350;2023-04-07T05:12:31;6.00;51.20
1025;DHT22;501;48.214;11.350;2023-04-07T05:14:57;5.90;51.20
1025;DHT22;501;48.214;11.350;2023-04-07T05:17:23;5.90;51.60
1025;DHT22;501;48.214;11.350;2023-04-07T05:19:48;5.90;51.50
1025;DHT22;501;48.214;11.350;2023-04-07T05:22:14;5.90;51.70
1025;DHT22;501;48.214;11.350;2023-04-07T05:24:40;5.90;51.80
1025;DHT22;501;48.214;11.350;2023-04-07T05:27:06;5.90;51.80
1025;DHT22;501;48.214;11.350;2023-04-07T05:29:32;5.90;52.30
1025;DHT22;501;48.214;11.350;2023-04-07T05:31:57;5.90;52.10
1025;DHT22;501;48.214;11.350;2023-04-07T05:34:23;5.90;52.10
1025;DHT22;501;48.214;11.350;2023-04-07T05:36:48;5.90;51.90
1025;DHT22;501;48.214;11.350;2023-04-07T05:39:14;5.80;52.00
1025;DHT22;501;48.214;11.350;2023-04-07T05:41:41;5.90;52.00
1025;DHT22;501;48.214;11.350;2023-04-07T05:44:06;5.90;52.10
1025;DHT22;501;48.214;11.350;2023-04-07T05:46:32;5.90;51.90
1025;DHT22;501;48.214;11.350;2023-04-07T05:48:58;5.90;51.40
1025;DHT22;501;48.214;11.350;2023-04-07T05:51:23;5.90;51.10
1025;DHT22;501;48.214;11.350;2023-04-07T05:53:49;6.00;51.90
1025;DHT22;501;48.214;11.350;2023-04-07T05:56:14;6.00;51.20
1025;DHT22;501;48.214;11.350;2023-04-07T05:58:40;6.00;51.20
1025;DHT22;501;48.214;11.350;2023-04-07T06:01:06;6.00;51.10
1025;DHT22;501;48.214;11.350;2023-04-07T06:03:31;6.00;51.10
1025;DHT22;501;48.214;11.350;2023-04-07T06:05:57;6.00;51.00
1025;DHT22;501;48.214;11.350;2023-04-07T06:08:23;6.00;50.70
1025;DHT22;501;48.214;11.350;2023-04-07T06:10:48;6.00;51.30
1025;DHT22;501;48.214;11.350;2023-04-07T06:13:14;6.10;52.10
1025;DHT22;501;48.214;11.350;2023-04-07T06:15:40;6.10;51.00
1025;DHT22;501;48.214;11.350;2023-04-07T06:18:05;6.20;50.90
1025;DHT22;501;48.214;11.350;2023-04-07T06:20:31;6.20;51.10
1025;DHT22;501;48.214;11.350;2023-04-07T06:22:56;6.30;51.60
1025;DHT22;501;48.214;11.350;2023-04-07T06:25:22;6.30;51.20
1025;DHT22;501;48.214;11.350;2023-04-07T06:27:48;6.40;51.00
1025;DHT22;501;48.214;11.350;2023-04-07T06:30:14;6.40;50.00
1025;DHT22;501;48.214;11.350;2023-04-07T06:32:40;6.40;49.90
1025;DHT22;501;48.214;11.350;2023-04-07T06:35:06;6.40;49.30
1025;DHT22;501;48.214;11.350;2023-04-07T06:37:31;6.50;49.10
1025;DHT22;501;48.214;11.350;2023-04-07T06:39:57;6.50;48.40
1025;DHT22;501;48.214;11.350;2023-04-07T06:42:22;6.50;48.80
1025;DHT22;501;48.214;11.350;2023-04-07T06:44:48;6.50;49.00
1025;DHT22;501;48.214;11.350;2023-04-07T06:47:14;6.50;49.40
1025;DHT22;501;48.214;11.350;2023-04-07T06:49:40;6.50;48.90
1025;DHT22;501;48.214;11.350;2023-04-07T06:52:05;6.60;48.00
1025;DHT22;501;48.214;11.350;2023-04-07T06:54:31;6.60;48.30
1025;DHT22;501;48.214;11.350;2023-04-07T06:56:57;6.60;49.20
1025;DHT22;501;48.214;11.350;2023-04-07T06:59:22;6.70;49.50
1025;DHT22;501;48.214;11.350;2023-04-07T07:01:48;6.80;48.80
1025;DHT22;501;48.214;11.350;2023-04-07T07:04:14;6.80;48.60
1025;DHT22;501;48.214;11.350;2023-04-07T07:06:39;6.90;48.40
1025;DHT22;501;48.214;11.350;2023-04-07T07:09:05;6.90;48.40
1025;DHT22;501;48.214;11.350;2023-04-07T07:11:31;7.00;47.80
1025;DHT22;501;48.214;11.350;2023-04-07T07:13:56;7.00;47.90
1025;DHT22;501;48.214;11.350;2023-04-07T07:16:22;7.00;47.60
1025;DHT22;501;48.214;11.350;2023-04-07T07:18:49;7.10;48.20
1025;DHT22;501;48.214;11.350;2023-04-07T07:21:16;7.20;47.60
1025;DHT22;501;48.214;11.350;2023-04-07T07:23:42;7.20;47.10
1025;DHT22;501;48.214;11.350;2023-04-07T07:26:09;7.30;47.00
1025;DHT22;501;48.214;11.350;2023-04-07T07:28:34;7.40;46.50
1025;DHT22;501;48.214;11.350;2023-04-07T07:31:06;7.40;45.70
1025;DHT22;501;48.214;11.350;2023-04-07T07:33:34;7.40;46.30
1025;DHT22;501;48.214;11.350;2023-04-07T07:36:00;7.50;46.30
1025;DHT22;501;48.214;11.350;2023-04-07T07:38:25;7.50;46.10
1025;DHT22;501;48.214;11.350;2023-04-07T07:40:52;7.60;46.40
1025;DHT22;501;48.214;11.350;2023-04-07T07:43:17;7.60;46.00
1025;DHT22;501;48.214;11.350;2023-04-07T07:45:43;7.60;46.00
1025;DHT22;501;48.214;11.350;2023-04-07T07:48:09;7.70;45.40
1025;DHT22;501;48.214;11.350;2023-04-07T07:50:34;7.80;45.60
1025;DHT22;501;48.214;11.350;2023-04-07T07:53:00;7.80;45.30
1025;DHT22;501;48.214;11.350;2023-04-07T07:55:26;7.90;45.20
1025;DHT22;501;48.214;11.350;2023-04-07T07:57:52;8.00;45.00
1025;DHT22;501;48.214;11.350;2023-04-07T08:00:17;8.00;44.10
1025;DHT22;501;48.214;11.350;2023-04-07T08:02:43;8.10;45.40
1025;DHT22;501;48.214;11.350;2023-04-07T08:05:09;8.20;43.40
1025;DHT22;501;48.214;11.350;2023-04-07T08:07:35;8.20;43.30
1025;DHT22;501;48.214;11.350;2023-04-07T08:10:01;8.30;43.40
1025;DHT22;501;48.214;11.350;2023-04-07T08:12:26;8.40;43.60
1025;DHT22;501;48.214;11.350;2023-04-07T08:14:52;8.50;43.10
1025;DHT22;501;48.214;11.350;2023-04-07T08:17:17;8.60;42.20
1025;DHT22;501;48.214;11.350;2023-04-07T08:19:43;8.70;42.10
1025;DHT22;501;48.214;11.350;2023-04-07T08:22:09;8.90;41.30
1025;DHT22;501;48.214;11.350;2023-04-07T08:24:34;9.00;40.90
1025;DHT22;501;48.214;11.350;2023-04-07T08:27:00;9.10;40.40
1025;DHT22;501;48.214;11.350;2023-04-07T08:29:26;9.20;39.80
1025;DHT22;501;48.214;11.350;2023-04-07T08:31:51;9.30;38.90
1025;DHT22;501;48.214;11.350;2023-04-07T08:34:17;9.50;38.80
1025;DHT22;501;48.214;11.350;2023-04-07T08:36:45;9.60;37.30
1025;DHT22;501;48.214;11.350;2023-04-07T08:39:11;9.70;36.70
1025;DHT22;501;48.214;11.350;2023-04-07T08:41:38;9.80;36.80
1025;DHT22;501;48.214;11.350;2023-04-07T08:44:06;9.90;37.10
1025;DHT22;501;48.214;11.350;2023-04-07T08:46:33;10.00;35.40
1025;DHT22;501;48.214;11.350;2023-04-07T08:49:00;10.20;34.00
1025;DHT22;501;48.214;11.350;2023-04-07T08:51:28;10.30;33.60
1025;DHT22;501;48.214;11.350;2023-04-07T08:54:16;10.30;33.80
1025;DHT22;501;48.214;11.350;2023-04-07T08:56:43;10.40;33.00
1025;DHT22;501;48.214;11.350;2023-04-07T08:59:13;10.50;33.30
1025;DHT22;501;48.214;11.350;2023-04-07T09:01:40;10.50;33.70
1025;DHT22;501;48.214;11.350;2023-04-07T09:04:07;10.50;31.50
1025;DHT22;501;48.214;11.350;2023-04-07T09:06:33;10.60;31.60
1025;DHT22;501;48.214;11.350;2023-04-07T09:09:00;10.60;31.60
1025;DHT22;501;48.214;11.350;2023-04-07T09:11:27;10.70;31.70
1025;DHT22;501;48.214;11.350;2023-04-07T09:13:53;10.70;31.70
1025;DHT22;501;48.214;11.350;2023-04-07T09:16:19;10.70;31.10
1025;DHT22;501;48.214;11.350;2023-04-07T09:18:45;10.70;30.60
1025;DHT22;501;48.214;11.350;2023-04-07T09:21:11;10.80;31.20
1025;DHT22;501;48.214;11.350;2023-04-07T09:23:38;10.80;30.70
1025;DHT22;501;48.214;11.350;2023-04-07T09:26:20;10.90;30.90
1025;DHT22;501;48.214;11.350;2023-04-07T09:28:48;11.00;30.30
1025;DHT22;501;48.214;11.350;2023-04-07T09:31:15;11.10;29.80
1025;DHT22;501;48.214;11.350;2023-04-07T09:33:41;11.10;30.00
1025;DHT22;501;48.214;11.350;2023-04-07T09:36:06;11.20;30.50
1025;DHT22;501;48.214;11.350;2023-04-07T09:38:37;11.30;29.90
1025;DHT22;501;48.214;11.350;2023-04-07T09:41:14;11.30;29.60
1025;DHT22;501;48.214;11.350;2023-04-07T09:43:45;11.40;28.40
1025;DHT22;501;48.214;11.350;2023-04-07T09:46:15;11.40;29.00
1025;DHT22;501;48.214;11.350;2023-04-07T09:48:42;11.40;28.80
1025;DHT22;501;48.214;11.350;2023-04-07T09:51:13;11.50;27.60
1025;DHT22;501;48.214;11.350;2023-04-07T09:53:48;11.50;27.40
1025;DHT22;501;48.214;11.350;2023-04-07T09:56:15;11.50;28.10
1025;DHT22;501;48.214;11.350;2023-04-07T09:58:45;11.50;28.00
1025;DHT22;501;48.214;11.350;2023-04-07T10:01:12;11.50;28.10
1025;DHT22;501;48.214;11.350;2023-04-07T10:03:38;11.50;27.70
1025;DHT22;501;48.214;11.350;2023-04-07T10:06:05;11.60;26.60
1025;DHT22;501;48.214;11.350;2023-04-07T10:08:36;11.70;26.00
1025;DHT22;501;48.214;11.350;2023-04-07T10:11:03;11.70;26.90
1025;DHT22;501;48.214;11.350;2023-04-07T10:13:30;11.70;27.50
1025;DHT22;501;48.214;11.350;2023-04-07T10:15:57;11.90;28.40
1025;DHT22;501;48.214;11.350;2023-04-07T10:18:28;12.00;27.30
1025;DHT22;501;48.214;11.350;2023-04-07T10:20:55;12.10;27.00
1025;DHT22;501;48.214;11.350;2023-04-07T10:25:53;12.40;26.80
1025;DHT22;501;48.214;11.350;2023-04-07T10:28:22;12.50;27.30
1025;DHT22;501;48.214;11.350;2023-04-07T10:30:49;12.50;25.40
1025;DHT22;501;48.214;11.350;2023-04-07T10:33:16;12.40;26.00
1025;DHT22;501;48.214;11.350;2023-04-07T10:36:05;12.40;26.50
1025;DHT22;501;48.214;11.350;2023-04-07T10:38:31;12.40;25.40
1025;DHT22;501;48.214;11.350;2023-04-07T10:40:57;12.40;26.20
1025;DHT22;501;48.214;11.350;2023-04-07T10:43:39;12.40;25.90
1025;DHT22;501;48.214;11.350;2023-04-07T10:46:06;12.50;25.40
1025;DHT22;501;48.214;11.350;2023-04-07T10:48:32;12.60;25.50
1025;DHT22;501;48.214;11.350;2023-04-07T10:53:30;12.80;25.20
1025;DHT22;501;48.214;11.350;2023-04-07T10:55:56;12.90;25.70
1025;DHT22;501;48.214;11.350;2023-04-07T10:58:32;13.00;25.80
1025;DHT22;501;48.214;11.350;2023-04-07T11:06:06;13.50;24.50
1025;DHT22;501;48.214;11.350;2023-04-07T11:11:03;13.60;24.50
1025;DHT22;501;48.214;11.350;2023-04-07T11:13:48;13.60;24.90
1025;DHT22;501;48.214;11.350;2023-04-07T11:16:15;13.60;25.10
1025;DHT22;501;48.214;11.350;2023-04-07T11:18:41;13.60;24.60
1025;DHT22;501;48.214;11.350;2023-04-07T11:21:08;13.70;25.00
1025;DHT22;501;48.214;11.350;2023-04-07T11:23:40;13.70;24.50
1025;DHT22;501;48.214;11.350;2023-04-07T11:26:08;13.80;24.60
1025;DHT22;501;48.214;11.350;2023-04-07T11:28:53;13.90;23.90
1025;DHT22;501;48.214;11.350;2023-04-07T11:31:27;13.90;24.20
1025;DHT22;501;48.214;11.350;2023-04-07T11:34:00;14.00;24.00
1025;DHT22;501;48.214;11.350;2023-04-07T11:36:37;14.10;24.10
1025;DHT22;501;48.214;11.350;2023-04-07T11:39:02;14.20;23.70
1025;DHT22;501;48.214;11.350;2023-04-07T11:41:32;14.10;23.90
1025;DHT22;501;48.214;11.350;2023-04-07T11:46:30;14.20;24.70
1025;DHT22;501;48.214;11.350;2023-04-07T11:49:11;14.40;23.90
1025;DHT22;501;48.214;11.350;2023-04-07T11:51:36;14.50;23.80
1025;DHT22;501;48.214;11.350;2023-04-07T11:54:02;14.50;23.40
1025;DHT22;501;48.214;11.350;2023-04-07T11:56:28;14.60;24.00
1025;DHT22;501;48.214;11.350;2023-04-07T11:58:55;14.70;23.00
1025;DHT22;501;48.214;11.350;2023-04-07T12:01:21;14.80;23.00
1025;DHT22;501;48.214;11.350;2023-04-07T12:04:03;14.80;22.60
1025;DHT22;501;48.214;11.350;2023-04-07T12:06:30;14.70;22.70
1025;DHT22;501;48.214;11.350;2023-04-07T12:08:59;14.70;23.60
1025;DHT22;501;48.214;11.350;2023-04-07T12:11:25;14.70;23.30
1025;DHT22;501;48.214;11.350;2023-04-07T12:13:52;14.70;23.00
1025;DHT22;501;48.214;11.350;2023-04-07T12:16:19;14.60;22.50
1025;DHT22;501;48.214;11.350;2023-04-07T12:18:46;14.60;23.10
1025;DHT22;501;48.214;11.350;2023-04-07T12:21:11;14.50;23.10
1025;DHT22;501;48.214;11.350;2023-04-07T12:23:37;14.30;23.40
1025;DHT22;501;48.214;11.350;2023-04-07T12:26:03;14.10;23.50
1025;DHT22;501;48.214;11.350;2023-04-07T12:28:28;14.00;23.60
1025;DHT22;501;48.214;11.350;2023-04-07T12:30:54;14.00;24.00
1025;DHT22;501;48.214;11.350;2023-04-07T12:33:20;13.90;23.80
1025;DHT22;501;48.214;11.350;2023-04-07T12:35:46;13.90;23.70
1025;DHT22;501;48.214;11.350;2023-04-07T12:38:12;13.80;24.00
1025;DHT22;501;48.214;11.350;2023-04-07T12:40:37;13.80;23.70
1025;DHT22;501;48.214;11.350;2023-04-07T12:43:04;13.80;23.60
1025;DHT22;501;48.214;11.350;2023-04-07T12:45:30;13.80;24.30
1025;DHT22;501;48.214;11.350;2023-04-07T12:47:56;13.80;24.30
1025;DHT22;501;48.214;11.350;2023-04-07T12:50:22;13.90;24.70
1025;DHT22;501;48.214;11.350;2023-04-07T12:52:50;14.10;23.80
1025;DHT22;501;48.214;11.350;2023-04-07T12:55:16;14.10;23.00
1025;DHT22;501;48.214;11.350;2023-04-07T12:57:42;14.00;23.90
1025;DHT22;501;48.214;11.350;2023-04-07T13:00:08;14.00;23.80
1025;DHT22;501;48.214;11.350;2023-04-07T13:02:34;14.00;23.60
1025;DHT22;501;48.214;11.350;2023-04-07T13:05:02;14.10;24.60
1025;DHT22;501;48.214;11.350;2023-04-07T13:07:28;14.30;24.70
1025;DHT22;501;48.214;11.350;2023-04-07T13:09:53;14.40;24.00
1025;DHT22;501;48.214;11.350;2023-04-07T13:12:19;14.50;23.20
1025;DHT22;501;48.214;11.350;2023-04-07T13:14:45;14.50;23.50
1025;DHT22;501;48.214;11.350;2023-04-07T13:17:11;14.60;23.20
1025;DHT22;501;48.214;11.350;2023-04-07T13:19:37;14.50;22.70
1025;DHT22;501;48.214;11.350;2023-04-07T13:22:02;14.50;23.10
1025;DHT22;501;48.214;11.350;2023-04-07T13:24:28;14.40;22.70
1025;DHT22;501;48.214;11.350;2023-04-07T13:26:54;14.30;22.70
1025;DHT22;501;48.214;11.350;2023-04-07T13:29:20;14.30;23.00
1025;DHT22;501;48.214;11.350;2023-04-07T13:31:46;14.30;22.50
1025;DHT22;501;48.214;11.350;2023-04-07T13:34:12;14.30;23.70
1025;DHT22;501;48.214;11.350;2023-04-07T13:36:38;14.30;23.40
1025;DHT22;501;48.214;11.350;2023-04-07T13:39:04;14.30;23.00
1025;DHT22;501;48.214;11.350;2023-04-07T13:41:29;14.30;23.20
1025;DHT22;501;48.214;11.350;2023-04-07T13:43:56;14.20;22.50
1025;DHT22;501;48.214;11.350;2023-04-07T13:46:23;14.10;22.50
1025;DHT22;501;48.214;11.350;2023-04-07T13:48:49;14.00;22.60
1025;DHT22;501;48.214;11.350;2023-04-07T13:51:15;14.00;23.50
1025;DHT22;501;48.214;11.350;2023-04-07T13:53:41;14.00;23.70
1025;DHT22;501;48.214;11.350;2023-04-07T13:56:07;14.00;23.30
1025;DHT22;501;48.214;11.350;2023-04-07T13:58:34;13.90;23.70
1025;DHT22;501;48.214;11.350;2023-04-07T14:01:00;13.80;23.50
1025;DHT22;501;48.214;11.350;2023-04-07T14:03:26;13.70;23.50
1025;DHT22;501;48.214;11.350;2023-04-07T14:05:52;13.60;23.70
1025;DHT22;501;48.214;11.350;2023-04-07T14:08:20;13.50;23.40
1025;DHT22;501;48.214;11.350;2023-04-07T14:10:48;13.40;23.50
1025;DHT22;501;48.214;11.350;2023-04-07T14:13:13;13.30;23.90
1025;DHT22;501;48.214;11.350;2023-04-07T14:15:40;13.20;23.80
1025;DHT22;501;48.214;11.350;2023-04-07T14:18:06;13.20;24.70
1025;DHT22;501;48.214;11.350;2023-04-07T14:20:32;13.20;24.40
1025;DHT22;501;48.214;11.350;2023-04-07T14:22:57;13.30;24.40
1025;DHT22;501;48.214;11.350;2023-04-07T14:25:23;13.30;24.70
1025;DHT22;501;48.214;11.350;2023-04-07T14:27:50;13.40;24.60
1025;DHT22;501;48.214;11.350;2023-04-07T14:30:16;13.50;24.50
1025;DHT22;501;48.214;11.350;2023-04-07T14:32:42;13.50;24.70
1025;DHT22;501;48.214;11.350;2023-04-07T14:35:08;13.50;24.10
1025;DHT22;501;48.214;11.350;2023-04-07T14:37:34;13.50;25.00
1025;DHT22;501;48.214;11.350;2023-04-07T14:40:04;13.50;24.70
1025;DHT22;501;48.214;11.350;2023-04-07T14:42:30;13.50;24.10
1025;DHT22;501;48.214;11.350;2023-04-07T14:44:57;13.50;24.50
1025;DHT22;501;48.214;11.350;2023-04-07T14:47:23;13.40;25.10
1025;DHT22;501;48.214;11.350;2023-04-07T14:49:49;13.40;24.80
1025;DHT22;501;48.214;11.350;2023-04-07T14:52:15;13.40;24.70
1025;DHT22;501;48.214;11.350;2023-04-07T14:54:41;13.40;24.90
1025;DHT22;501;48.214;11.350;2023-04-07T14:57:07;13.30;24.60
1025;DHT22;501;48.214;11.350;2023-04-07T14:59:32;13.30;25.20
1025;DHT22;501;48.214;11.350;2023-04-07T15:01:58;13.30;25.00
1025;DHT22;501;48.214;11.350;2023-04-07T15:04:24;13.30;25.10
1025;DHT22;501;48.214;11.350;2023-04-07T15:06:49;13.40;24.90
1025;DHT22;501;48.214;11.350;2023-04-07T15:09:15;13.30;25.20
1025;DHT22;501;48.214;11.350;2023-04-07T15:11:41;13.30;25.30
1025;DHT22;501;48.214;11.350;2023-04-07T15:14:06;13.30;25.40
1025;DHT22;501;48.214;11.350;2023-04-07T15:16:32;13.30;25.20
1025;DHT22;501;48.214;11.350;2023-04-07T15:18:58;13.20;25.30
1025;DHT22;501;48.214;11.350;2023-04-07T15:21:23;13.20;25.30
1025;DHT22;501;48.214;11.350;2023-04-07T15:23:49;13.10;25.80
1025;DHT22;501;48.214;11.350;2023-04-07T15:26:15;13.10;25.80
1025;DHT22;501;48.214;11.350;2023-04-07T15:28:40;13.10;25.40
1025;DHT22;501;48.214;11.350;2023-04-07T15:31:06;13.00;25.70
1025;DHT22;501;48.214;11.350;2023-04-07T15:33:37;13.00;25.80
1025;DHT22;501;48.214;11.350;2023-04-07T15:36:04;13.00;25.80
1025;DHT22;501;48.214;11.350;2023-04-07T15:38:30;13.00;25.80
1025;DHT22;501;48.214;11.350;2023-04-07T15:40:55;13.00;26.20
1025;DHT22;501;48.214;11.350;2023-04-07T15:43:21;13.00;25.80
1025;DHT22;501;48.214;11.350;2023-04-07T15:45:47;13.00;26.10
1025;DHT22;501;48.214;11.350;2023-04-07T15:48:13;13.00;25.80
1025;DHT22;501;48.214;11.350;2023-04-07T15:50:39;13.00;25.80
1025;DHT22;501;48.214;11.350;2023-04-07T15:53:05;13.00;26.00
1025;DHT22;501;48.214;11.350;2023-04-07T15:55:32;13.00;26.00
1025;DHT22;501;48.214;11.350;2023-04-07T15:57:58;13.10;26.30
1025;DHT22;501;48.214;11.350;2023-04-07T16:00:25;13.00;26.40
1025;DHT22;501;48.214;11.350;2023-04-07T16:02:51;13.00;26.40
1025;DHT22;501;48.214;11.350;2023-04-07T16:05:16;12.90;26.30
1025;DHT22;501;48.214;11.350;2023-04-07T16:07:42;12.90;26.60
1025;DHT22;501;48.214;11.350;2023-04-07T16:10:11;12.80;26.80
1025;DHT22;501;48.214;11.350;2023-04-07T16:12:38;12.70;26.30
1025;DHT22;501;48.214;11.350;2023-04-07T16:15:05;12.60;26.70
1025;DHT22;501;48.214;11.350;2023-04-07T16:17:32;12.60;26.70
1025;DHT22;501;48.214;11.350;2023-04-07T16:19:58;12.50;26.60
1025;DHT22;501;48.214;11.350;2023-04-07T16:22:24;12.50;26.90
1025;DHT22;501;48.214;11.350;2023-04-07T16:24:50;12.50;27.20
1025;DHT22;501;48.214;11.350;2023-04-07T16:27:16;12.50;27.20